Time;durP1;ratioP1;P1;durP2;ratioP2;P2;SDS_P1;SDS_P2;PMS_P1;PMS_P2;Temp;Humidity;BMP_temperature;BMP_pressure;BME280_temperature;BME280_humidity;BME280_pressure;Samples;Min_cycle;Max_cycle;Signal;HPM_P1;HPM_P2
2023/03/10 00:01:12;;;;;;;19.80;10.48;;;0.80;99.90;;;;;;5122375;27;20038;-85
2023/03/10 00:03:38;;;;;;;19.48;10.00;;;1.20;99.90;;;;;;5122714;27;20051;-85
2023/03/10 00:06:05;;;;;;;17.88;10.40;;;0.80;99.90;;;;;;5138546;27;20192;-85
2023/03/10 00:08:30;;;;;;;19.02;10.20;;;0.90;99.90;;;;;;5138968;27;20047;-84
2023/03/10 00:10:56;;;;;;;15.85;9.65;;;0.90;99.90;;;;;;5138893;27;20397;-84
2023/03/10 00:13:21;;;;;;;18.00;9.48;;;0.90;99.90;;;;;;5139014;27;20031;-85
2023/03/10 00:15:47;;;;;;;17.58;9.80;;;0.90;99.90;;;;;;5139349;27;20051;-85
2023/03/10 00:18:13;;;;;;;16.60;9.60;;;0.90;99.90;;;;;;5121889;27;20047;-85
2023/03/10 00:20:39;;;;;;;18.08;9.05;;;0.80;99.90;;;;;;5121698;27;20105;-85
2023/03/10 00:23:05;;;;;;;19.45;9.15;;;0.90;99.90;;;;;;5138637;27;20038;-85
2023/03/10 00:25:30;;;;;;;16.10;9.55;;;1.00;99.90;;;;;;5121363;27;20046;-85
2023/03/10 00:27:56;;;;;;;16.27;8.68;;;0.80;99.90;;;;;;5138399;27;20051;-85
2023/03/10 00:30:21;;;;;;;16.83;8.93;;;1.80;99.90;;;;;;5138518;27;20068;-85
2023/03/10 00:32:49;;;;;;;15.70;8.55;;;1.90;99.90;;;;;;5138330;27;20489;-85
2023/03/10 00:35:14;;;;;;;17.73;9.20;;;2.40;99.90;;;;;;5121473;27;20074;-85
2023/03/10 00:37:40;;;;;;;15.55;8.18;;;0.80;99.90;;;;;;5121415;27;20095;-85
2023/03/10 00:40:13;;;;;;;15.95;8.32;;;1.00;99.90;;;;;;5156656;27;20125;-85
2023/03/10 00:42:39;;;;;;;17.13;9.40;;;0.80;99.90;;;;;;5138661;27;20125;-85
2023/03/10 00:45:05;;;;;;;14.90;8.70;;;0.90;99.90;;;;;;5120963;27;20473;-85
2023/03/10 00:47:32;;;;;;;15.60;9.07;;;;;;;;;;5138377;27;20039;-85
2023/03/10 00:49:57;;;;;;;15.55;8.13;;;0.80;99.90;;;;;;5121470;27;20058;-85
2023/03/10 00:52:23;;;;;;;18.17;9.93;;;1.00;99.90;;;;;;5138310;27;20374;-85
2023/03/10 00:54:50;;;;;;;14.20;8.57;;;0.80;99.90;;;;;;5121149;27;20047;-85
2023/03/10 00:57:15;;;;;;;;;;;0.80;99.90;;;;;;5157170;27;20541;-85
2023/03/10 00:59:41;;;;;;;16.35;9.20;;;0.80;99.90;;;;;;5138066;27;19966;-85
2023/03/10 01:02:07;;;;;;;13.45;8.57;;;0.80;99.90;;;;;;5137991;27;20557;-85
2023/03/10 01:04:32;;;;;;;14.52;8.57;;;0.80;99.90;;;;;;5156227;27;20034;-85
2023/03/10 01:06:58;;;;;;;15.57;8.15;;;0.80;99.90;;;;;;5137928;27;20488;-85
2023/03/10 01:09:23;;;;;;;14.90;8.27;;;0.80;99.90;;;;;;5155411;27;20512;-85
2023/03/10 01:11:49;;;;;;;16.35;8.32;;;1.90;99.90;;;;;;5120723;27;20085;-85
2023/03/10 01:14:15;;;;;;;15.30;7.82;;;0.80;99.90;;;;;;5120884;27;20497;-85
2023/03/10 01:16:41;;;;;;;15.80;8.95;;;0.80;99.90;;;;;;5120884;27;20049;-85
2023/03/10 01:19:07;;;;;;;16.85;7.88;;;0.80;99.90;;;;;;5137687;27;20046;-85
2023/03/10 01:21:34;;;;;;;12.68;7.60;;;;;;;;;;5120861;27;20390;-84
2023/03/10 01:24:00;;;;;;;17.02;8.70;;;0.70;99.90;;;;;;5137631;27;20046;-85
2023/03/10 01:26:26;;;;;;;12.85;7.15;;;0.80;99.90;;;;;;5156016;27;20042;-85
2023/03/10 01:28:52;;;;;;;14.43;8.70;;;0.70;99.90;;;;;;5120417;27;20042;-85
2023/03/10 01:31:18;;;;;;;15.02;8.52;;;2.80;99.90;;;;;;5155731;27;20759;-85
2023/03/10 01:33:45;;;;;;;18.02;9.35;;;0.90;99.90;;;;;;5155686;27;20035;-85
2023/03/10 01:36:14;;;;;;;15.73;8.82;;;0.80;99.90;;;;;;5137364;27;20049;-84
2023/03/10 01:38:41;;;;;;;11.38;6.90;;;0.80;99.90;;;;;;5136999;27;20397;-85
2023/03/10 01:41:07;;;;;;;14.60;8.05;;;0.80;99.90;;;;;;5137218;27;20042;-85
2023/03/10 01:43:34;;;;;;;16.17;8.38;;;0.90;99.90;;;;;;5136965;27;20092;-85
2023/03/10 01:46:00;;;;;;;16.10;8.07;;;2.10;99.90;;;;;;5137135;27;20397;-85
2023/03/10 01:48:28;;;;;;;15.52;8.55;;;0.80;99.90;;;;;;5137371;27;20042;-85
2023/03/10 01:50:56;;;;;;;14.60;8.27;;;0.80;99.90;;;;;;5136871;27;20490;-85
2023/03/10 01:53:23;;;;;;;15.77;8.63;;;1.40;99.90;;;;;;5155485;27;20051;-85
2023/03/10 01:55:59;;;;;;;15.70;8.35;;;0.70;99.90;;;;;;5137406;27;20050;-85
2023/03/10 01:58:30;;;;;;;15.43;8.70;;;0.70;99.90;;;;;;5137360;27;20102;-85
2023/03/10 02:00:55;;;;;;;16.98;8.90;;;0.70;99.90;;;;;;5137273;27;20046;-85
2023/03/10 02:03:31;;;;;;;14.73;8.23;;;1.00;99.90;;;;;;5120009;27;20038;-85
2023/03/10 02:06:03;;;;;;;18.38;9.25;;;1.40;99.90;;;;;;5136999;27;20147;-85
2023/03/10 02:08:33;;;;;;;12.85;8.10;;;0.80;99.90;;;;;;5136850;27;20478;-85
2023/03/10 02:11:00;;;;;;;17.17;9.00;;;0.70;99.90;;;;;;5119931;27;20038;-85
2023/03/10 02:13:26;;;;;;;17.42;9.20;;;0.80;99.90;;;;;;5155300;27;20039;-85
2023/03/10 02:15:52;;;;;;;14.70;8.75;;;0.70;99.90;;;;;;5119915;27;20558;-84
2023/03/10 02:18:19;;;;;;;16.52;8.52;;;0.70;99.90;;;;;;5119919;27;20047;-85
2023/03/10 02:21:23;;;;;;;16.73;9.68;;;0.70;99.90;;;;;;5123118;27;20058;-85
2023/03/10 02:24:18;;;;;;;14.00;8.65;;;0.70;99.90;;;;;;5123872;27;20489;-85
2023/03/10 02:27:01;;;;;;;15.50;9.05;;;0.70;99.90;;;;;;5159830;27;20039;-85
2023/03/10 02:29:41;;;;;;;16.83;8.98;;;0.70;99.90;;;;;;5124491;27;20505;-85
2023/03/10 02:32:08;;;;;;;15.52;8.98;;;1.20;99.90;;;;;;5123832;27;20046;-85
2023/03/10 02:34:34;;;;;;;13.70;8.80;;;0.70;99.90;;;;;;5140760;27;20043;-85
2023/03/10 02:36:59;;;;;;;15.27;8.85;;;1.00;99.90;;;;;;5159114;27;20473;-85
2023/03/10 02:39:25;;;;;;;14.18;8.13;;;0.90;99.90;;;;;;5140942;27;20046;-85
2023/03/10 02:41:52;;;;;;;14.25;8.20;;;2.00;99.90;;;;;;5140520;27;20474;-85
2023/03/10 02:44:20;;;;;;;14.55;8.15;;;0.70;99.90;;;;;;5140722;27;20130;-85
2023/03/10 02:46:46;;;;;;;13.02;7.45;;;0.70;99.90;;;;;;5123748;27;20053;-85
2023/03/10 02:49:12;;;;;;;11.00;6.50;;;0.70;99.90;;;;;;5123523;27;20196;-85
2023/03/10 02:51:41;;;;;;;13.77;7.57;;;0.70;99.90;;;;;;5123188;27;20061;-85
2023/03/10 02:54:08;;;;;;;14.77;8.23;;;0.70;99.90;;;;;;5158826;27;20050;-85
2023/03/10 02:56:35;;;;;;;16.60;8.48;;;1.50;99.90;;;;;;5140329;27;20043;-85
2023/03/10 02:59:02;;;;;;;13.32;7.95;;;0.60;99.90;;;;;;5140163;27;20039;-85
2023/03/10 03:01:29;;;;;;;16.30;7.80;;;0.60;99.90;;;;;;5123438;27;20085;-85
2023/03/10 03:03:55;;;;;;;12.88;7.65;;;1.90;99.90;;;;;;5158778;27;20049;-85
2023/03/10 03:06:21;;;;;;;14.00;7.87;;;;;;;;;;5140352;27;20042;-85
2023/03/10 03:08:47;;;;;;;15.90;8.45;;;0.60;99.90;;;;;;5123458;27;20085;-85
2023/03/10 03:11:13;;;;;;;14.80;8.45;;;1.10;99.90;;;;;;5123089;27;20538;-85
2023/03/10 03:13:39;;;;;;;15.00;8.13;;;0.90;99.90;;;;;;5140149;27;20058;-85
2023/03/10 03:16:07;;;;;;;14.23;7.95;;;2.40;99.90;;;;;;5123080;27;20042;-85
2023/03/10 03:18:32;;;;;;;14.35;7.85;;;0.60;99.90;;;;;;5140115;27;20122;-86
2023/03/10 03:21:02;;;;;;;14.13;7.57;;;1.10;99.90;;;;;;5139979;27;20446;-85
2023/03/10 03:23:27;;;;;;;15.13;7.97;;;2.70;99.90;;;;;;5123320;27;20511;-85
2023/03/10 03:25:53;;;;;;;15.55;7.70;;;0.80;99.90;;;;;;5122982;27;20086;-85
2023/03/10 03:28:19;;;;;;;12.18;7.25;;;0.60;99.90;;;;;;5139804;27;20045;-85
2023/03/10 03:30:45;;;;;;;13.43;8.13;;;0.80;99.90;;;;;;5122256;27;20494;-85
2023/03/10 03:33:11;;;;;;;14.35;8.15;;;0.60;99.90;;;;;;5139502;27;20042;-84
2023/03/10 03:35:37;;;;;;;14.40;7.70;;;0.70;99.90;;;;;;5122780;27;20039;-85
2023/03/10 03:38:03;;;;;;;14.43;7.70;;;0.50;99.90;;;;;;5122941;27;20053;-85
2023/03/10 03:40:32;;;;;;;13.97;7.90;;;0.70;99.90;;;;;;5158147;27;20082;-85
2023/03/10 03:42:58;;;;;;;14.82;8.32;;;0.70;99.90;;;;;;5122679;27;20516;-85
2023/03/10 03:45:26;;;;;;;15.30;9.30;;;0.90;99.90;;;;;;5122494;27;20050;-85
2023/03/10 03:47:52;;;;;;;17.10;8.70;;;0.60;99.90;;;;;;5139415;27;20038;-85
2023/03/10 03:50:19;;;;;;;18.27;9.40;;;0.60;99.90;;;;;;5121990;27;20046;-85
2023/03/10 03:52:46;;;;;;;16.50;9.07;;;0.60;99.90;;;;;;5139677;27;20056;-85
2023/03/10 03:55:13;;;;;;;17.63;9.25;;;0.60;99.90;;;;;;5157631;27;20034;-84
2023/03/10 03:57:39;;;;;;;17.42;9.70;;;0.60;99.90;;;;;;5139342;27;20529;-85
2023/03/10 04:00:07;;;;;;;13.68;7.47;;;0.60;99.90;;;;;;5122159;27;20129;-84
2023/03/10 04:02:33;;;;;;;19.27;10.02;;;0.60;99.90;;;;;;5139065;27;20030;-85
2023/03/10 04:04:59;;;;;;;17.50;9.48;;;0.90;99.90;;;;;;5138847;27;20038;-85
2023/03/10 04:07:25;;;;;;;16.75;9.70;;;0.60;99.90;;;;;;5121892;27;20043;-85
2023/03/10 04:09:51;;;;;;;12.48;7.38;;;0.60;99.90;;;;;;5157255;27;20046;-85
2023/03/10 04:12:16;;;;;;;19.30;10.98;;;0.60;99.90;;;;;;5138848;27;20043;-85
2023/03/10 04:14:42;;;;;;;15.75;9.35;;;0.70;99.90;;;;;;5121982;27;20094;-85
2023/03/10 04:17:07;;;;;;;23.00;11.75;;;0.60;99.90;;;;;;5121731;27;20043;-85
2023/03/10 04:19:33;;;;;;;17.40;10.05;;;0.60;99.90;;;;;;5157108;27;20046;-84
2023/03/10 04:21:59;;;;;;;19.10;10.73;;;0.60;99.90;;;;;;5138864;27;20046;-85
2023/03/10 04:24:24;;;;;;;20.30;10.65;;;1.50;99.90;;;;;;5138510;27;20389;-85
2023/03/10 04:26:50;;;;;;;19.00;11.00;;;0.70;99.90;;;;;;5138540;27;20474;-85
2023/03/10 04:29:16;;;;;;;21.17;10.65;;;1.00;99.90;;;;;;5156914;27;20055;-85
2023/03/10 04:31:41;;;;;;;21.38;10.90;;;0.70;99.90;;;;;;5121509;27;20038;-85
2023/03/10 04:34:07;;;;;;;17.20;9.43;;;0.70;99.90;;;;;;5121475;27;20050;-85
2023/03/10 04:36:33;;;;;;;18.05;9.23;;;0.70;99.90;;;;;;5120745;27;20069;-84
2023/03/10 04:38:58;;;;;;;21.23;9.98;;;0.60;99.90;;;;;;5139094;27;20038;-85
2023/03/10 04:41:24;;;;;;;17.13;9.75;;;0.60;99.90;;;;;;5138244;27;20042;-84
2023/03/10 04:43:50;;;;;;;19.25;9.18;;;0.60;99.90;;;;;;5120538;27;20046;-84
2023/03/10 04:46:15;;;;;;;14.75;8.30;;;0.60;99.90;;;;;;5156918;27;20076;-84
2023/03/10 04:48:41;;;;;;;15.13;8.45;;;0.60;99.90;;;;;;5121413;27;20042;-84
2023/03/10 04:51:09;;;;;;;11.88;6.82;;;1.00;99.90;;;;;;5138057;27;20047;-84
2023/03/10 04:53:36;;;;;;;14.68;8.60;;;0.60;99.90;;;;;;5138090;27;20111;-84
2023/03/10 04:56:05;;;;;;;16.95;9.02;;;0.60;99.90;;;;;;5138506;27;20071;-85
2023/03/10 04:58:31;;;;;;;11.85;7.18;;;0.60;99.90;;;;;;5138041;27;20038;-85
2023/03/10 05:00:57;;;;;;;13.10;7.80;;;0.60;99.90;;;;;;5137857;27;20170;-85
2023/03/10 05:03:23;;;;;;;13.27;7.50;;;0.60;99.90;;;;;;5156208;27;20117;-85
2023/03/10 05:05:49;;;;;;;14.65;8.63;;;0.60;99.90;;;;;;5137641;27;20598;-84
2023/03/10 05:08:15;;;;;;;16.17;7.85;;;0.60;99.90;;;;;;5120945;27;20465;-85
2023/03/10 05:10:42;;;;;;;12.80;7.15;;;0.60;99.90;;;;;;5121333;27;20038;-85
2023/03/10 05:13:11;;;;;;;11.60;7.03;;;0.60;99.90;;;;;;5137862;27;20053;-85
2023/03/10 05:15:38;;;;;;;13.15;7.45;;;0.60;99.90;;;;;;5138450;27;20038;-85
2023/03/10 05:18:03;;;;;;;;;;;0.60;99.90;;;;;;5121903;27;20375;-85
2023/03/10 05:20:29;;;;;;;10.30;5.68;;;0.80;99.90;;;;;;5121727;27;20025;-85
2023/03/10 05:22:55;;;;;;;11.10;6.28;;;0.60;99.90;;;;;;5156130;27;20078;-85
2023/03/10 05:25:21;;;;;;;10.40;6.13;;;0.60;99.90;;;;;;5137629;27;20038;-85
2023/03/10 05:27:46;;;;;;;11.30;6.35;;;0.60;99.90;;;;;;5137789;27;20071;-85
2023/03/10 05:30:14;;;;;;;12.50;7.30;;;0.50;99.90;;;;;;5155953;27;20043;-85
2023/03/10 05:32:40;;;;;;;12.10;6.93;;;0.60;99.90;;;;;;5137444;27;20043;-85
2023/03/10 05:35:06;;;;;;;13.20;7.15;;;1.10;99.90;;;;;;5137484;27;20046;-85
2023/03/10 05:37:35;;;;;;;12.85;7.05;;;0.60;99.90;;;;;;5120875;27;20067;-85
2023/03/10 05:40:01;;;;;;;12.27;6.22;;;0.90;99.90;;;;;;5137390;27;20074;-85
2023/03/10 05:42:26;;;;;;;12.23;7.18;;;0.60;99.90;;;;;;5137153;27;20085;-85
2023/03/10 05:44:52;;;;;;;11.32;6.53;;;0.60;99.90;;;;;;5155202;27;20085;-85
2023/03/10 05:47:18;;;;;;;12.05;6.75;;;0.60;99.90;;;;;;5137000;27;20050;-85
2023/03/10 05:49:44;;;;;;;11.25;6.10;;;1.00;99.90;;;;;;5137984;27;20038;-85
2023/03/10 05:52:10;;;;;;;12.37;6.17;;;1.00;99.90;;;;;;5137076;27;20046;-85
2023/03/10 05:54:35;;;;;;;12.05;6.60;;;-0.80;99.90;;;;;;5136868;27;20684;-85
2023/03/10 05:57:01;;;;;;;11.98;6.68;;;0.70;99.90;;;;;;5120349;27;20130;-85
2023/03/10 05:59:27;;;;;;;11.88;6.95;;;0.70;99.90;;;;;;5119985;27;20046;-85
2023/03/10 06:01:53;;;;;;;10.82;6.55;;;0.70;99.90;;;;;;5119790;27;20053;-86
2023/03/10 06:04:18;;;;;;;13.65;7.15;;;0.70;99.90;;;;;;5137021;27;20050;-85
2023/03/10 06:06:44;;;;;;;13.88;6.95;;;1.80;99.90;;;;;;5136866;27;20038;-86
2023/03/10 06:09:10;;;;;;;11.57;6.57;;;0.80;99.90;;;;;;5120336;27;20074;-85
2023/03/10 06:11:35;;;;;;;12.80;7.40;;;0.70;99.90;;;;;;5136956;27;20027;-84
2023/03/10 06:14:03;;;;;;;10.82;6.88;;;0.70;99.90;;;;;;5119665;27;20047;-82
2023/03/10 06:16:29;;;;;;;14.13;7.38;;;0.70;99.90;;;;;;5136977;27;20042;-82
2023/03/10 06:18:55;;;;;;;14.75;7.38;;;0.70;99.90;;;;;;5155188;27;20082;-83
2023/03/10 06:21:21;;;;;;;12.82;7.13;;;0.70;99.90;;;;;;5119805;27;20078;-87
2023/03/10 06:23:47;;;;;;;12.95;6.95;;;0.70;99.90;;;;;;5137323;27;20089;-89
2023/03/10 06:26:14;;;;;;;11.90;6.70;;;0.80;99.90;;;;;;5155533;27;20042;-87
2023/03/10 06:28:43;;;;;;;12.95;7.35;;;1.30;99.90;;;;;;5136801;27;20042;-86
2023/03/10 06:31:23;;;;;;;12.82;7.18;;;0.70;99.90;;;;;;5136712;27;20046;-85
2023/03/10 06:33:49;;;;;;;13.80;7.43;;;0.70;99.90;;;;;;5155633;27;20061;-85
2023/03/10 06:36:16;;;;;;;12.75;7.05;;;0.70;99.90;;;;;;5136616;27;20039;-87
2023/03/10 06:38:41;;;;;;;13.50;7.28;;;0.70;99.90;;;;;;5136973;27;20047;-83
2023/03/10 06:41:08;;;;;;;11.52;6.53;;;0.70;99.90;;;;;;5155452;27;20049;-87
2023/03/10 06:43:34;;;;;;;11.63;6.72;;;0.80;99.90;;;;;;5120216;27;20054;-89
2023/03/10 06:46:03;;;;;;;12.35;6.70;;;0.90;99.90;;;;;;5136713;27;20125;-84
2023/03/10 06:48:28;;;;;;;12.73;6.80;;;0.80;99.90;;;;;;5119995;27;20046;-86
2023/03/10 06:50:54;;;;;;;13.50;7.57;;;1.50;99.90;;;;;;5136060;27;20050;-85
2023/03/10 06:53:20;;;;;;;13.13;7.55;;;0.80;99.90;;;;;;5136514;27;20042;-85
2023/03/10 06:56:01;;;;;;;14.45;8.20;;;0.80;99.90;;;;;;5136838;27;20039;-84
2023/03/10 06:58:28;;;;;;;13.25;8.07;;;0.90;99.90;;;;;;5137526;27;20506;-87
2023/03/10 07:00:54;;;;;;;17.20;8.52;;;1.60;99.90;;;;;;5137026;27;20188;-88
2023/03/10 07:03:20;;;;;;;14.57;8.32;;;1.10;99.90;;;;;;5119802;27;20081;-86
2023/03/10 07:05:46;;;;;;;15.00;8.18;;;0.90;99.90;;;;;;5136320;27;20038;-86
2023/03/10 07:08:11;;;;;;;14.75;8.48;;;0.90;99.90;;;;;;5139986;27;20134;-83
2023/03/10 07:10:37;;;;;;;13.90;7.88;;;0.90;99.90;;;;;;5158617;27;20079;-84
2023/03/10 07:13:03;;;;;;;15.88;8.50;;;1.00;99.90;;;;;;5139953;27;20122;-83
2023/03/10 07:15:28;;;;;;;14.13;8.25;;;1.30;99.90;;;;;;5123157;27;20046;-83
2023/03/10 07:17:55;;;;;;;15.68;9.13;;;1.00;99.90;;;;;;5140111;27;20042;-83
2023/03/10 07:20:22;;;;;;;15.20;8.35;;;1.00;99.90;;;;;;5139850;27;20378;-82
2023/03/10 07:22:48;;;;;;;15.25;8.73;;;1.10;99.90;;;;;;5122878;27;20051;-80
2023/03/10 07:25:14;;;;;;;18.85;9.82;;;1.00;99.90;;;;;;5158179;27;20130;-88
2023/03/10 07:27:39;;;;;;;15.43;9.13;;;1.00;99.90;;;;;;5122626;27;20482;-82
2023/03/10 07:30:06;;;;;;;16.98;10.07;;;1.00;99.90;;;;;;5157988;27;20098;-83
2023/03/10 07:32:33;;;;;;;17.58;9.45;;;1.00;99.90;;;;;;5139940;27;20435;-80
2023/03/10 07:34:58;;;;;;;21.52;9.82;;;1.30;99.90;;;;;;5139618;27;20087;-83
2023/03/10 07:37:24;;;;;;;20.00;9.93;;;1.10;99.90;;;;;;5139505;27;20039;-81
2023/03/10 07:39:52;;;;;;;16.75;10.32;;;1.10;99.90;;;;;;5157933;27;20126;-82
2023/03/10 07:42:18;;;;;;;17.05;9.70;;;1.10;99.90;;;;;;5157410;27;20125;-82
2023/03/10 07:44:43;;;;;;;20.25;10.98;;;1.00;99.90;;;;;;5139301;27;20122;-82
2023/03/10 07:47:09;;;;;;;14.95;8.95;;;1.10;99.90;;;;;;5139990;27;20473;-82
2023/03/10 07:49:34;;;;;;;17.77;10.02;;;1.10;99.90;;;;;;5140332;27;20051;-82
2023/03/10 07:52:00;;;;;;;20.10;10.80;;;1.70;99.90;;;;;;5122322;27;20548;-82
2023/03/10 07:54:25;;;;;;;17.88;9.98;;;1.10;99.90;;;;;;5122553;27;20039;-82
2023/03/10 07:56:51;;;;;;;19.13;10.35;;;1.20;99.90;;;;;;5158089;27;20045;-82
2023/03/10 07:59:17;;;;;;;17.60;10.52;;;1.10;99.90;;;;;;5140526;27;20106;-82
2023/03/10 08:01:42;;;;;;;21.08;10.32;;;1.10;99.90;;;;;;5139068;27;20050;-82
2023/03/10 08:04:08;;;;;;;17.45;10.63;;;1.10;99.90;;;;;;5139090;27;20043;-82
2023/03/10 08:06:34;;;;;;;16.90;10.50;;;1.20;99.90;;;;;;5157463;27;20047;-79
2023/03/10 08:09:00;;;;;;;19.95;10.57;;;1.20;99.90;;;;;;5139179;27;20379;-81
2023/03/10 08:11:26;;;;;;;20.33;10.73;;;1.30;99.90;;;;;;5139061;27;20049;-81
2023/03/10 08:13:51;;;;;;;22.10;11.40;;;1.80;99.90;;;;;;5157773;27;20039;-80
2023/03/10 08:16:19;;;;;;;19.08;10.43;;;1.20;99.90;;;;;;5138801;27;20130;-80
2023/03/10 08:18:45;;;;;;;17.58;9.60;;;2.40;99.90;;;;;;5156947;27;20045;-84
2023/03/10 08:21:11;;;;;;;19.65;10.40;;;1.30;99.90;;;;;;5138909;27;20046;-79
2023/03/10 08:23:37;;;;;;;17.40;10.10;;;2.00;99.90;;;;;;5138511;27;20038;-79
2023/03/10 08:26:09;;;;;;;18.90;10.10;;;1.30;99.90;;;;;;5156985;27;20038;-80
2023/03/10 08:28:37;;;;;;;20.85;11.35;;;1.30;99.90;;;;;;5156744;27;20120;-84
2023/03/10 08:31:21;;;;;;;19.63;10.88;;;1.60;99.90;;;;;;5156946;27;20047;-80
2023/03/10 08:33:48;;;;;;;20.23;10.45;;;1.30;99.90;;;;;;5156921;27;20405;-81
2023/03/10 08:36:19;;;;;;;20.33;10.77;;;1.50;99.90;;;;;;5156827;27;20046;-82
2023/03/10 08:38:45;;;;;;;19.33;10.88;;;1.30;99.90;;;;;;5120746;27;20093;-82
2023/03/10 08:41:29;;;;;;;17.73;10.13;;;1.40;99.90;;;;;;5156915;27;20082;-83
2023/03/10 08:43:56;;;;;;;18.85;10.00;;;1.40;99.90;;;;;;5156757;27;20085;-81
2023/03/10 08:46:23;;;;;;;;;;;1.40;99.90;;;;;;5121690;27;20047;-81
2023/03/10 08:48:49;;;;;;;18.67;10.13;;;1.40;99.90;;;;;;5120982;27;20389;-81
2023/03/10 08:51:15;;;;;;;18.17;9.43;;;1.50;99.90;;;;;;5156373;27;20046;-83
2023/03/10 08:53:41;;;;;;;16.95;9.70;;;1.50;99.90;;;;;;5138037;27;20505;-82
2023/03/10 08:56:06;;;;;;;16.75;9.98;;;1.40;99.90;;;;;;5156376;27;20051;-82
2023/03/10 08:58:32;;;;;;;18.70;10.77;;;1.50;99.90;;;;;;5156356;27;20076;-81
2023/03/10 09:00:59;;;;;;;17.40;8.88;;;1.40;99.90;;;;;;5137887;27;20432;-81
2023/03/10 09:03:25;;;;;;;12.18;7.78;;;1.40;99.90;;;;;;5138103;27;20081;-82
2023/03/10 09:05:51;;;;;;;20.08;10.27;;;1.70;99.90;;;;;;5120549;27;20074;-82
2023/03/10 09:08:16;;;;;;;16.63;9.60;;;1.50;99.90;;;;;;5156240;27;20502;-82
2023/03/10 09:10:44;;;;;;;17.92;9.57;;;1.70;99.90;;;;;;5137767;27;20125;-81
2023/03/10 09:13:10;;;;;;;16.00;9.65;;;1.60;99.90;;;;;;5156109;27;20039;-82
2023/03/10 09:15:40;;;;;;;18.73;9.70;;;1.60;99.90;;;;;;5156380;27;20054;-82
2023/03/10 09:18:07;;;;;;;16.60;9.38;;;1.60;99.90;;;;;;5156204;27;20295;-81
2023/03/10 09:20:33;;;;;;;18.00;10.02;;;1.70;99.90;;;;;;5155822;27;20082;-82
2023/03/10 09:22:58;;;;;;;17.10;9.38;;;1.60;99.90;;;;;;5156147;27;20093;-81
2023/03/10 09:25:24;;;;;;;18.42;10.10;;;1.60;99.90;;;;;;5137815;27;20034;-82
2023/03/10 09:27:50;;;;;;;16.35;9.63;;;1.60;99.90;;;;;;5138363;27;20046;-82
2023/03/10 09:30:16;;;;;;;15.02;8.77;;;1.60;99.90;;;;;;5136898;27;20103;-81
2023/03/10 09:32:43;;;;;;;15.65;9.75;;;1.70;99.90;;;;;;5155950;27;20051;-83
2023/03/10 09:35:09;;;;;;;;;;;1.70;99.90;;;;;;5137922;27;20047;-82
2023/03/10 09:37:35;;;;;;;15.75;10.00;;;1.70;99.90;;;;;;5155752;27;20009;-82
2023/03/10 09:40:00;;;;;;;15.75;9.90;;;1.70;99.90;;;;;;5137526;27;20385;-82
2023/03/10 09:42:39;;;;;;;15.80;9.30;;;2.30;99.90;;;;;;5120083;27;20046;-82
2023/03/10 09:45:34;;;;;;;17.38;9.43;;;2.20;99.90;;;;;;5137123;27;20063;-82
2023/03/10 09:48:25;;;;;;;16.13;9.20;;;1.60;99.90;;;;;;5138097;27;20054;-83
2023/03/10 09:50:55;;;;;;;17.42;10.32;;;1.70;99.90;;;;;;5120368;27;20059;-82
2023/03/10 09:53:45;;;;;;;17.42;9.85;;;1.70;99.90;;;;;;5155475;27;20034;-82
2023/03/10 09:56:21;;;;;;;17.10;10.20;;;1.70;99.90;;;;;;5155882;27;20109;-82
2023/03/10 09:58:52;;;;;;;18.77;9.90;;;2.50;99.90;;;;;;5155912;27;20053;-82
2023/03/10 10:01:22;;;;;;;15.20;9.48;;;1.70;99.90;;;;;;5155483;27;20641;-82
2023/03/10 10:03:58;;;;;;;15.90;9.10;;;1.70;99.90;;;;;;5155306;27;20046;-83
2023/03/10 10:06:28;;;;;;;17.42;10.48;;;1.60;99.90;;;;;;5138236;27;20459;-82
2023/03/10 10:09:16;;;;;;;17.88;10.20;;;2.70;99.90;;;;;;5137828;27;20402;-82
2023/03/10 10:11:42;;;;;;;16.02;9.90;;;1.60;99.90;;;;;;5155669;27;20035;-82
2023/03/10 10:14:20;;;;;;;19.58;10.95;;;1.60;99.90;;;;;;5155319;27;20470;-82
2023/03/10 10:16:58;;;;;;;18.50;10.77;;;1.60;99.90;;;;;;5137825;27;20054;-82
2023/03/10 10:19:26;;;;;;;20.83;11.00;;;1.60;99.90;;;;;;5156043;27;20068;-82
2023/03/10 10:22:05;;;;;;;18.00;10.30;;;1.60;99.90;;;;;;5155505;27;20104;-82
2023/03/10 10:24:31;;;;;;;14.75;8.90;;;1.60;99.90;;;;;;5155697;27;20050;-81
2023/03/10 10:26:56;;;;;;;16.92;9.75;;;1.60;99.90;;;;;;5155606;27;20406;-81
2023/03/10 10:29:35;;;;;;;18.13;10.23;;;1.60;99.90;;;;;;5155422;27;20039;-83
2023/03/10 10:32:03;;;;;;;18.70;10.65;;;1.60;99.90;;;;;;5137005;27;20045;-83
2023/03/10 10:34:30;;;;;;;20.10;10.98;;;1.60;99.90;;;;;;5155445;27;20117;-81
2023/03/10 10:36:56;;;;;;;21.65;11.40;;;1.60;99.90;;;;;;5119442;27;20172;-81
2023/03/10 10:39:31;;;;;;;18.33;10.03;;;1.60;99.90;;;;;;5136761;27;20054;-82
2023/03/10 10:42:23;;;;;;;17.73;9.45;;;1.60;99.90;;;;;;5158504;27;20053;-82
2023/03/10 10:44:54;;;;;;;20.27;11.85;;;1.50;99.90;;;;;;5158727;27;20538;-82
2023/03/10 10:47:45;;;;;;;16.42;9.73;;;1.60;99.90;;;;;;5140686;27;20047;-82
2023/03/10 10:50:21;;;;;;;19.73;11.27;;;1.50;99.90;;;;;;5158784;27;20118;-82
2023/03/10 10:52:49;;;;;;;18.70;10.93;;;1.50;99.90;;;;;;5158922;27;20109;-82
2023/03/10 10:55:35;;;;;;;21.65;10.93;;;1.80;99.90;;;;;;5158812;27;20054;-82
2023/03/10 10:58:05;;;;;;;20.83;12.13;;;1.50;99.90;;;;;;5140679;27;20039;-81
2023/03/10 11:00:37;;;;;;;20.40;11.75;;;2.00;99.90;;;;;;5158527;27;20053;-83
2023/03/10 11:03:19;;;;;;;23.65;11.80;;;1.50;99.90;;;;;;5158739;27;20383;-84
2023/03/10 11:05:44;;;;;;;22.83;12.55;;;1.70;99.90;;;;;;5158591;27;20034;-82
2023/03/10 11:08:31;;;;;;;23.15;12.75;;;1.50;99.90;;;;;;5140101;27;20049;-79
2023/03/10 11:11:06;;;;;;;23.25;13.05;;;1.50;99.90;;;;;;5158685;27;20453;-82
2023/03/10 11:14:01;;;;;;;22.45;11.98;;;1.50;99.90;;;;;;5158532;27;20042;-85
2023/03/10 11:16:52;;;;;;;24.30;12.98;;;1.50;99.90;;;;;;5140498;27;20050;-82
2023/03/10 11:19:28;;;;;;;20.67;12.27;;;1.50;99.90;;;;;;5159040;27;20053;-84
2023/03/10 11:22:03;;;;;;;20.85;12.02;;;1.50;99.90;;;;;;5140340;27;20069;-83
2023/03/10 11:24:39;;;;;;;21.10;12.10;;;1.50;99.90;;;;;;5139584;27;20078;-81
2023/03/10 11:27:39;;;;;;;18.60;11.55;;;1.40;99.90;;;;;;5140024;27;20091;-82
2023/03/10 11:30:30;;;;;;;21.25;12.40;;;1.50;99.90;;;;;;5139748;27;20085;-82
2023/03/10 11:33:14;;;;;;;23.80;11.52;;;1.80;99.90;;;;;;5139605;27;20039;-81
2023/03/10 11:35:50;;;;;;;24.23;12.30;;;1.50;99.90;;;;;;5158118;27;20043;-81
2023/03/10 11:38:39;;;;;;;24.25;12.77;;;1.50;99.90;;;;;;5158058;27;20038;-81
2023/03/10 11:41:18;;;;;;;18.60;11.32;;;1.40;99.90;;;;;;5125134;27;20047;-83
2023/03/10 11:44:12;;;;;;;21.85;11.85;;;1.40;99.90;;;;;;5125994;27;20045;-86
2023/03/10 11:46:54;;;;;;;18.25;9.93;;;1.50;99.90;;;;;;5139601;27;20046;-83
2023/03/10 11:49:25;;;;;;;22.55;12.48;;;1.40;99.90;;;;;;5158559;27;20069;-85
2023/03/10 11:51:58;;;;;;;17.77;10.00;;;1.50;99.90;;;;;;5158150;27;20427;-84
2023/03/10 11:54:32;;;;;;;20.25;11.32;;;1.50;99.90;;;;;;5139509;27;20542;-83
2023/03/10 11:57:02;;;;;;;21.02;11.43;;;1.50;99.90;;;;;;5158023;27;20044;-79
2023/03/10 11:59:29;;;;;;;18.17;10.02;;;2.20;99.90;;;;;;5139592;27;20172;-79
2023/03/10 12:02:02;;;;;;;20.33;11.55;;;1.50;99.90;;;;;;5157664;27;20114;-81
2023/03/10 12:04:43;;;;;;;20.55;11.90;;;1.60;99.90;;;;;;5157766;27;20134;-82
2023/03/10 12:07:24;;;;;;;17.88;10.60;;;1.70;99.90;;;;;;5157448;27;20047;-84
2023/03/10 12:09:58;;;;;;;17.60;9.93;;;1.60;99.90;;;;;;5157407;27;20050;-81
2023/03/10 12:12:29;;;;;;;18.30;10.77;;;1.60;99.90;;;;;;5157502;27;20512;-80
2023/03/10 12:14:59;;;;;;;17.90;9.75;;;1.70;99.90;;;;;;5157048;27;20046;-82
2023/03/10 12:17:24;;;;;;;18.48;9.98;;;1.60;99.90;;;;;;5121838;27;20049;-79
2023/03/10 12:20:17;;;;;;;17.95;10.60;;;1.70;99.90;;;;;;5157133;27;20042;-82
2023/03/10 12:22:45;;;;;;;18.48;10.45;;;1.70;99.90;;;;;;5139517;27;20046;-85
2023/03/10 12:25:29;;;;;;;20.77;11.18;;;1.70;99.90;;;;;;5121964;27;20155;-83
2023/03/10 12:28:27;;;;;;;18.45;10.88;;;2.00;99.90;;;;;;5139082;27;20078;-86
2023/03/10 12:31:01;;;;;;;18.70;10.57;;;1.80;99.90;;;;;;5157383;27;20046;-83
2023/03/10 12:33:36;;;;;;;17.20;9.93;;;1.80;99.90;;;;;;5139199;27;20494;-81
2023/03/10 12:36:14;;;;;;;19.33;11.65;;;1.90;99.90;;;;;;5157218;27;20133;-79
2023/03/10 12:38:58;;;;;;;17.92;10.32;;;1.70;99.90;;;;;;5138782;27;20039;-82
2023/03/10 12:41:27;;;;;;;19.10;10.43;;;1.70;99.90;;;;;;5121474;27;20493;-85
2023/03/10 12:43:54;;;;;;;18.77;10.90;;;1.70;99.90;;;;;;5138912;27;20050;-82
2023/03/10 12:46:49;;;;;;;16.83;10.35;;;1.70;99.90;;;;;;5155113;27;20409;-81
2023/03/10 12:49:39;;;;;;;19.35;11.40;;;1.70;99.90;;;;;;5155358;27;20614;-82
2023/03/10 12:52:23;;;;;;;20.00;11.68;;;1.60;99.90;;;;;;5155353;27;20090;-82
2023/03/10 12:55:13;;;;;;;21.20;11.57;;;1.60;99.90;;;;;;5155597;27;20046;-82
2023/03/10 12:57:42;;;;;;;20.38;11.48;;;1.60;99.90;;;;;;5155511;27;20046;-81